Strona główna
METAR-TAF:

METAR-TAF

Lotnisko :

Nowy Jork, Nowy Jork, Stany Zjednoczone

Szerokość geograficzna: 40-42-04N, Długość geograficzna: 074-00-32W, wysokość: 2 m

Aktualna obserwacja pogody

Raport powstał 51 minut temu, godzina 16:56 UTC
Wiatr 7 kt od zachodnio-południowy zachód
Temperatura 2°C
Wilgotność 55%
Ciśnienie 1025 hPa
Widzialność: 16.1 km
Zachmurzenie całkowite na wysokości 3500 ft

METAR: KJRB 231656Z AUTO 24007KT 10SM OVC035 02/M06 A3028 RMK AO2 SLP255 T00221056 FZRANO

czas: 12:47 (17:47 UTC)


TAF: brakujący

Obserwacja i prognoza pogody dla ponad 4000 lotnisk (raport METAR i TAF).

Dostępne stacje oznaczono żółtymi i czerwonymi punktami na mapie.

Najedź kursorem aby zobaczyć nazwę stacji.

Kliknij aby zobaczyć obserwacje i prognozy pogody.

Aby zmienić mapę: kliknij na zielony przycisk z czarnym krzyżykiem, aby powiększyć; na zielony przycisk z myślnikiem, aby pomniejszyć; na zielone strzałki, aby przejść do map sąsiednich.


METAR-TAF: